Time;durP1;ratioP1;P1;durP2;ratioP2;P2;SDS_P1;SDS_P2;PMS_P1;PMS_P2;Temp;Humidity;BMP_temperature;BMP_pressure;BME280_temperature;BME280_humidity;BME280_pressure;Samples;Min_cycle;Max_cycle;Signal;HPM_P1;HPM_P2
2022/07/20 00:02:13;;;;;;;4.85;1.40;;;;;;;27.60;25.73;99048.44;4503055;31;20127;-81
2022/07/20 00:04:39;;;;;;;4.35;1.35;;;;;;;27.57;25.75;99051.53;4503054;31;20144;-82
2022/07/20 00:07:04;;;;;;;4.90;1.60;;;;;;;27.56;25.77;99057.94;4502989;31;20122;-83
2022/07/20 00:12:14;;;;;;;6.72;1.50;;;;;;;27.55;25.70;99061.69;4503116;31;20122;-81
2022/07/20 00:14:40;;;;;;;5.50;1.40;;;;;;;27.47;25.63;99057.22;4488655;31;20092;-82
2022/07/20 00:17:05;;;;;;;5.65;1.60;;;;;;;27.51;25.51;99055.81;4503187;31;20118;-82
2022/07/20 00:19:31;;;;;;;7.28;1.60;;;;;;;27.48;25.40;99058.88;4503267;31;20119;-82
2022/07/20 00:21:56;;;;;;;6.65;1.80;;;;;;;27.51;25.43;99065.81;4503144;31;20462;-82
2022/07/20 00:24:22;;;;;;;5.30;1.50;;;;;;;27.52;25.51;99053.94;4503247;31;20347;-82
2022/07/20 00:26:47;;;;;;;3.10;1.35;;;;;;;27.46;25.64;99056.34;4503173;31;20104;-82
2022/07/20 00:29:13;;;;;;;6.60;1.65;;;;;;;27.45;25.67;99064.69;4501771;31;20089;-82
2022/07/20 00:31:38;;;;;;;6.05;1.60;;;;;;;27.49;25.50;99057.88;4503105;31;20096;-82
2022/07/20 00:34:03;;;;;;;3.70;1.50;;;;;;;27.33;25.36;99058.88;4503083;31;20118;-83
2022/07/20 00:36:29;;;;;;;7.30;1.60;;;;;;;27.40;25.40;99061.69;4488430;31;20084;-82
2022/07/20 00:38:54;;;;;;;6.20;1.90;;;;;;;27.30;25.46;99055.72;4502975;31;20076;-82
2022/07/20 00:41:20;;;;;;;5.78;1.58;;;;;;;27.32;25.69;99053.66;4503202;31;20112;-82
2022/07/20 00:43:56;;;;;;;4.60;1.45;;;;;;;27.34;25.78;99054.31;4502999;31;20644;-83
2022/07/20 00:46:22;;;;;;;3.53;1.40;;;;;;;27.33;25.90;99056.16;4488803;31;20084;-82
2022/07/20 00:48:47;;;;;;;5.12;1.50;;;;;;;27.29;26.07;99060.25;4502988;31;20076;-83
2022/07/20 00:51:13;;;;;;;7.47;1.83;;;;;;;27.26;26.12;99057.94;4502918;31;20092;-82
2022/07/20 00:53:39;;;;;;;7.22;1.50;;;;;;;27.24;26.23;99054.56;4488598;31;20084;-82
2022/07/20 00:56:06;;;;;;;5.80;1.52;;;;;;;27.21;26.26;99049.50;4488593;31;20085;-80
2022/07/20 00:58:32;;;;;;;6.57;1.87;;;;;;;27.19;26.18;99054.25;4502929;31;20153;-82
2022/07/20 01:00:57;;;;;;;5.28;1.52;;;;;;;27.17;26.07;99056.31;4502785;31;20157;-82
2022/07/20 01:03:23;;;;;;;5.90;1.65;;;;;;;27.16;26.14;99062.72;4488368;31;20456;-82
2022/07/20 01:05:48;;;;;;;3.78;1.42;;;;;;;27.13;26.27;99057.72;4502872;31;20112;-82
2022/07/20 01:08:13;;;;;;;8.15;1.60;;;;;;;27.08;26.40;99058.25;4488221;31;20088;-82
2022/07/20 01:10:39;;;;;;;4.15;1.52;;;;;;;27.05;26.51;99054.03;4502579;31;20085;-82
2022/07/20 01:13:04;;;;;;;7.37;1.60;;;;;;;27.03;26.62;99058.81;4488204;31;20144;-82
2022/07/20 01:15:30;;;;;;;6.82;1.67;;;;;;;27.02;26.57;99053.56;4488041;31;20087;-82
2022/07/20 01:17:55;;;;;;;7.05;1.80;;;;;;;27.01;26.47;99057.31;4502482;31;20168;-82
2022/07/20 01:20:24;;;;;;;6.32;1.90;;;;;;;26.92;26.30;99047.59;4488036;31;20120;-82
2022/07/20 01:22:50;;;;;;;6.25;1.55;;;;;;;26.95;26.40;99047.22;4502295;31;20153;-82
2022/07/20 01:25:15;;;;;;;5.95;1.60;;;;;;;26.95;26.48;99058.06;4487818;31;20143;-82
2022/07/20 01:27:41;;;;;;;7.07;1.77;;;;;;;26.94;26.50;99054.47;4502248;31;20102;-82
2022/07/20 01:30:07;;;;;;;5.53;1.50;;;;;;;26.94;26.55;99051.78;4488079;31;20096;-82
2022/07/20 01:32:33;;;;;;;7.03;1.95;;;;;;;26.96;26.50;99057.84;4502264;31;20084;-82
2022/07/20 01:34:58;;;;;;;6.03;1.50;;;;;;;26.88;26.58;99063.31;4487741;31;20437;-81
2022/07/20 01:37:23;;;;;;;7.30;1.80;;;;;;;26.86;26.53;99055.41;4502184;31;20080;-82
2022/07/20 01:39:49;;;;;;;4.45;1.60;;;;;;;26.84;26.63;99062.00;4502472;31;20096;-82
2022/07/20 01:42:14;;;;;;;6.70;1.40;;;;;;;26.82;26.74;99062.19;4489736;31;20123;-82
2022/07/20 01:44:40;;;;;;;4.85;1.70;;;;;;;26.82;26.77;99064.91;4489773;31;20079;-81
2022/07/20 01:47:05;;;;;;;6.37;1.60;;;;;;;26.79;26.91;99053.59;4503989;31;20142;-82
2022/07/20 01:49:31;;;;;;;5.72;1.55;;;;;;;26.77;27.11;99066.47;4489687;31;20149;-82
2022/07/20 01:51:56;;;;;;;7.62;1.80;;;;;;;26.77;27.03;99059.22;4504078;31;20132;-82
2022/07/20 01:54:22;;;;;;;6.97;1.98;;;;;;;26.74;27.03;99056.03;4489501;31;20088;-82
2022/07/20 01:56:47;;;;;;;7.15;1.73;;;;;;;26.71;27.09;99054.50;4503873;31;20081;-81
2022/07/20 01:59:12;;;;;;;3.92;1.62;;;;;;;26.70;27.22;99057.41;4489638;31;20123;-81
2022/07/20 02:01:38;;;;;;;3.87;1.33;;;;;;;26.67;27.26;99061.28;4503902;31;20104;-81
2022/07/20 02:04:05;;;;;;;5.80;1.48;;;;;;;26.64;27.45;99061.69;4504135;31;20077;-81
2022/07/20 02:06:30;;;;;;;5.45;1.60;;;;;;;26.60;27.67;99061.19;4489491;31;20083;-82
2022/07/20 02:08:56;;;;;;;8.63;1.85;;;;;;;26.57;27.68;99061.50;4503912;31;20111;-82
2022/07/20 02:11:21;;;;;;;6.18;1.75;;;;;;;26.56;27.63;99058.97;4489408;31;20087;-82
2022/07/20 02:13:47;;;;;;;5.75;1.70;;;;;;;26.54;27.62;99063.72;4503762;31;20110;-82
2022/07/20 02:16:15;;;;;;;7.22;2.00;;;;;;;26.51;27.69;99064.94;4503757;31;20090;-82
2022/07/20 02:18:46;;;;;;;6.97;1.80;;;;;;;26.52;27.74;99063.06;4503727;31;20115;-82
2022/07/20 02:21:12;;;;;;;8.68;2.00;;;;;;;26.49;27.75;99058.88;4489529;31;20095;-82
2022/07/20 02:23:38;;;;;;;7.10;1.80;;;;;;;26.45;27.86;99058.38;4503834;31;20131;-82
2022/07/20 02:26:04;;;;;;;6.95;2.03;;;;;;;26.45;27.92;99052.16;4503853;31;20104;-82
2022/07/20 02:28:29;;;;;;;4.82;1.70;;;;;;;26.42;27.90;99052.50;4489389;31;20104;-81
2022/07/20 02:30:55;;;;;;;8.13;1.80;;;;;;;26.40;27.92;99055.37;4503779;31;20110;-82
2022/07/20 02:33:21;;;;;;;7.18;2.00;;;;;;;26.38;27.92;99057.41;4503781;31;20091;-82
2022/07/20 02:35:46;;;;;;;7.32;2.10;;;;;;;26.36;28.01;99058.63;4503629;31;20080;-82
2022/07/20 02:38:15;;;;;;;5.82;1.75;;;;;;;26.33;28.04;99057.13;4489498;31;20124;-82
2022/07/20 02:40:40;;;;;;;6.65;1.70;;;;;;;26.32;27.96;99065.41;4503802;31;20589;-82
2022/07/20 02:43:06;;;;;;;6.43;1.65;;;;;;;26.31;27.93;99052.91;4503587;31;20083;-81
2022/07/20 02:45:32;;;;;;;7.35;2.00;;;;;;;26.28;27.83;99051.41;4503663;31;20113;-81
2022/07/20 02:48:02;;;;;;;6.45;1.55;;;;;;;26.29;27.76;99053.94;4489249;31;20131;-81
2022/07/20 02:50:33;;;;;;;6.20;1.98;;;;;;;26.29;27.78;99058.50;4503641;31;20096;-81
2022/07/20 02:52:59;;;;;;;7.22;1.60;;;;;;;26.29;27.71;99056.63;4488607;31;20105;-81
2022/07/20 02:55:25;;;;;;;3.97;1.60;;;;;;;26.28;27.77;99062.22;4489114;31;20072;-83
2022/07/20 02:57:50;;;;;;;7.72;1.70;;;;;;;26.27;27.75;99061.38;4503629;31;20462;-82
2022/07/20 03:00:16;;;;;;;6.45;1.83;;;;;;;26.28;27.86;99056.81;4503592;31;20470;-82
2022/07/20 03:02:41;;;;;;;8.38;2.12;;;;;;;26.28;27.95;99062.22;4503423;31;20080;-81
2022/07/20 03:05:07;;;;;;;7.75;1.83;;;;;;;26.25;28.05;99063.41;4489202;31;20096;-82
2022/07/20 03:07:33;;;;;;;5.10;1.83;;;;;;;26.24;28.08;99060.91;4503423;31;20096;-82
2022/07/20 03:09:58;;;;;;;7.35;1.83;;;;;;;26.24;28.11;99072.53;4503367;31;20084;-82
2022/07/20 03:12:24;;;;;;;9.68;1.92;;;;;;;26.23;28.12;99070.00;4489099;31;20079;-81
2022/07/20 03:14:49;;;;;;;6.32;1.50;;;;;;;26.24;28.07;99066.28;4503354;31;20378;-82
2022/07/20 03:17:15;;;;;;;5.72;1.87;;;;;;;26.22;28.06;99071.03;4503457;31;20145;-82
2022/07/20 03:19:40;;;;;;;6.65;1.92;;;;;;;26.23;28.17;99070.00;4489155;31;20142;-82
2022/07/20 03:22:06;;;;;;;5.37;1.80;;;;;;;26.31;27.93;99079.91;4503193;31;20509;-81
2022/07/20 03:24:31;;;;;;;5.05;1.75;;;;;;;26.33;27.83;99073.34;4503347;31;20092;-81
2022/07/20 03:26:56;;;;;;;5.37;1.60;;;;;;;26.34;27.79;99074.16;4503532;31;20105;-82
2022/07/20 03:29:22;;;;;;;7.35;1.60;;;;;;;26.36;27.78;99070.25;4503660;31;20096;-82
2022/07/20 03:31:48;;;;;;;8.43;1.95;;;;;;;26.39;27.82;99072.63;4503613;31;20397;-81
2022/07/20 03:34:13;;;;;;;6.18;1.62;;;;;;;26.44;28.00;99075.62;4503486;31;20110;-81
2022/07/20 03:36:39;;;;;;;6.97;1.80;;;;;;;26.47;28.06;99080.66;4503559;31;20123;-82
2022/07/20 03:39:04;;;;;;;4.93;1.55;;;;;;;26.53;28.04;99083.69;4503513;31;20092;-82
2022/07/20 03:41:29;;;;;;;7.80;1.73;;;;;;;26.59;28.09;99082.97;4503610;31;20080;-81
2022/07/20 03:43:55;;;;;;;8.52;1.60;;;;;;;26.65;28.25;99085.78;4503510;31;20084;-81
2022/07/20 03:46:20;;;;;;;5.32;1.40;;;;;;;26.66;28.21;99084.78;4488965;31;20135;-81
2022/07/20 03:48:45;;;;;;;4.85;1.50;;;;;;;26.72;28.23;99085.09;4503465;31;20142;-81
2022/07/20 03:51:11;;;;;;;6.05;1.75;;;;;;;26.78;28.12;99087.91;4503345;31;20083;-81
2022/07/20 03:53:36;;;;;;;7.80;1.55;;;;;;;26.86;28.17;99092.41;4489062;31;20352;-81
2022/07/20 03:56:02;;;;;;;7.82;1.73;;;;;;;26.94;28.04;99095.03;4503347;31;20349;-81
2022/07/20 03:58:27;;;;;;;6.62;1.80;;;;;;;27.01;28.13;99093.28;4488741;31;20126;-81
2022/07/20 04:00:53;;;;;;;8.40;1.62;;;;;;;27.11;28.70;99094.91;4488820;31;20409;-81
2022/07/20 04:03:18;;;;;;;6.25;1.60;;;;;;;27.21;29.90;99098.19;4502823;31;20080;-81
2022/07/20 04:05:44;;;;;;;6.80;1.48;;;;;;;27.29;30.33;99094.59;4503283;31;20088;-81
2022/07/20 04:08:09;;;;;;;6.35;1.80;;;;;;;27.33;30.45;99099.44;4503287;31;20103;-81
2022/07/20 04:10:35;;;;;;;7.35;1.70;;;;;;;27.38;29.12;99101.63;4503303;31;20079;-82
2022/07/20 04:13:03;;;;;;;6.45;1.60;;;;;;;27.50;28.69;99102.84;4488753;31;20458;-81
2022/07/20 04:15:28;;;;;;;4.60;1.52;;;;;;;27.54;27.55;99109.53;4502964;31;20157;-82
2022/07/20 04:17:54;;;;;;;4.87;1.70;;;;;;;27.64;27.47;99104.72;4503114;31;20088;-81
2022/07/20 04:20:19;;;;;;;8.05;1.70;;;;;;;27.78;27.35;99104.91;4503023;31;20096;-81
2022/07/20 04:22:44;;;;;;;6.30;1.67;;;;;;;27.89;26.96;99103.63;4488293;31;20085;-82
2022/07/20 04:25:10;;;;;;;6.37;2.10;;;;;;;28.01;26.72;99102.97;4502840;31;20135;-81
2022/07/20 04:27:35;;;;;;;8.73;2.12;;;;;;;28.17;26.71;99104.63;4488644;31;20165;-82
2022/07/20 04:30:01;;;;;;;8.63;1.90;;;;;;;28.26;26.73;99105.34;4502933;31;20140;-82
2022/07/20 04:32:27;;;;;;;7.32;1.92;;;;;;;28.37;27.24;99106.72;4502864;31;20106;-82
2022/07/20 04:34:52;;;;;;;9.50;1.95;;;;;;;28.48;26.49;99105.38;4502782;31;20096;-82
2022/07/20 04:37:17;;;;;;;7.47;1.95;;;;;;;28.61;26.91;99098.25;4502788;31;20084;-80
2022/07/20 04:39:43;;;;;;;8.00;1.98;;;;;;;28.78;28.32;99098.84;4502815;31;20144;-81
2022/07/20 04:42:08;;;;;;;8.65;1.70;;;;;;;28.93;29.16;99104.19;4502828;31;20080;-81
2022/07/20 04:44:34;;;;;;;5.15;1.85;;;;;;;28.99;29.23;99105.28;4488325;31;20412;-81
2022/07/20 04:46:59;;;;;;;8.18;2.10;;;;;;;29.03;29.18;99103.84;4502776;31;20083;-82
2022/07/20 04:49:24;;;;;;;7.57;2.28;;;;;;;29.21;28.85;99096.13;4488458;31;20080;-82
2022/07/20 04:51:50;;;;;;;9.98;2.20;;;;;;;29.40;28.39;99107.34;4502651;31;20084;-82
2022/07/20 04:54:18;;;;;;;5.72;1.70;;;;;;;29.51;27.95;99108.66;4488293;31;20132;-82
2022/07/20 04:56:44;;;;;;;6.55;1.62;;;;;;;29.53;27.68;99104.69;4502721;31;20084;-82
2022/07/20 04:59:09;;;;;;;7.05;1.75;;;;;;;29.67;26.79;99099.34;4502620;31;20138;-82
2022/07/20 05:01:35;;;;;;;6.45;1.60;;;;;;;29.67;27.01;99107.50;4502615;31;20359;-82
2022/07/20 05:04:00;;;;;;;8.02;2.10;;;;;;;29.74;26.83;99111.13;4502598;31;20145;-82
2022/07/20 05:06:26;;;;;;;6.90;1.98;;;;;;;29.86;25.74;99114.94;4488362;31;20136;-82
2022/07/20 05:08:51;;;;;;;5.37;1.52;;;;;;;29.99;25.70;99106.03;4502497;31;20106;-82
2022/07/20 05:11:17;;;;;;;5.70;1.87;;;;;;;30.12;25.46;99110.72;4488238;31;20075;-82
2022/07/20 05:13:42;;;;;;;8.57;1.77;;;;;;;30.22;24.86;99113.03;4502506;31;20123;-82
2022/07/20 05:16:09;;;;;;;7.22;2.05;;;;;;;30.33;24.91;99118.75;4487221;31;20127;-82
2022/07/20 05:18:35;;;;;;;6.85;1.80;;;;;;;30.45;25.50;99119.00;4502539;31;20083;-82
2022/07/20 05:21:00;;;;;;;7.75;2.03;;;;;;;30.56;25.79;99112.16;4502312;31;20391;-82
2022/07/20 05:23:26;;;;;;;8.68;2.30;;;;;;;30.61;25.53;99112.34;4487895;31;20179;-82
2022/07/20 05:25:51;;;;;;;8.23;2.00;;;;;;;30.71;25.56;99114.66;4502365;31;20088;-82
2022/07/20 05:28:18;;;;;;;7.78;1.83;;;;;;;30.80;25.33;99115.31;4488012;31;20483;-82
2022/07/20 05:30:45;;;;;;;6.03;1.83;;;;;;;30.88;24.72;99117.84;4485165;31;20172;-82
2022/07/20 05:33:11;;;;;;;7.10;2.08;;;;;;;30.91;24.09;99122.91;4486229;31;20164;-81
2022/07/20 05:35:36;;;;;;;8.13;1.62;;;;;;;30.94;23.78;99120.59;4494367;31;20091;-81
2022/07/20 05:38:02;;;;;;;6.57;2.00;;;;;;;30.90;24.26;99127.50;4492832;31;20115;-82
2022/07/20 05:40:27;;;;;;;7.50;1.70;;;;;;;30.96;24.21;99126.69;4497424;31;20335;-80
2022/07/20 05:42:52;;;;;;;7.93;1.83;;;;;;;31.07;24.17;99119.78;4502126;31;20089;-82
2022/07/20 05:45:18;;;;;;;7.72;1.80;;;;;;;31.14;24.15;99123.34;4502075;31;20088;-81
2022/07/20 05:47:43;;;;;;;7.07;1.90;;;;;;;31.13;23.73;99118.09;4501962;31;20137;-82
2022/07/20 05:50:09;;;;;;;7.20;2.17;;;;;;;31.23;23.86;99131.28;4501969;31;20111;-82
2022/07/20 05:52:34;;;;;;;6.05;1.70;;;;;;;31.33;23.80;99132.56;4487412;31;20104;-81
2022/07/20 05:55:00;;;;;;;8.07;2.10;;;;;;;31.29;23.86;99136.75;4494013;31;20111;-82
2022/07/20 05:57:26;;;;;;;5.72;1.80;;;;;;;31.40;23.77;99131.72;4493057;31;20100;-81
2022/07/20 05:59:51;;;;;;;6.07;1.95;;;;;;;31.51;23.61;99142.00;4493051;31;20100;-81
2022/07/20 06:02:17;;;;;;;8.90;2.12;;;;;;;31.52;23.29;99143.66;4494115;31;20401;-78
2022/07/20 06:04:42;;;;;;;8.10;2.15;;;;;;;31.46;23.57;99125.44;4492621;31;20502;-78
2022/07/20 06:07:08;;;;;;;8.05;1.98;;;;;;;31.52;23.66;99125.47;4479162;31;20149;-84
2022/07/20 06:09:33;;;;;;;8.18;2.00;;;;;;;31.57;23.68;99124.81;4493617;31;20093;-82
2022/07/20 06:11:58;;;;;;;8.63;2.20;;;;;;;31.60;23.77;99131.72;4477942;31;20132;-86
2022/07/20 06:14:24;;;;;;;9.63;2.12;;;;;;;31.78;23.71;99131.91;4501560;31;20127;-84
2022/07/20 06:16:49;;;;;;;10.50;2.00;;;;;;;31.79;23.68;99132.72;4500125;31;20409;-86
2022/07/20 06:19:15;;;;;;;6.70;1.80;;;;;;;31.79;23.89;99139.00;4500182;31;20092;-85
2022/07/20 06:21:40;;;;;;;6.32;1.90;;;;;;;31.85;23.75;99143.62;4492933;31;20122;-89
2022/07/20 06:24:06;;;;;;;8.63;2.20;;;;;;;31.90;23.72;99143.81;4499100;31;20128;-84
2022/07/20 06:26:31;;;;;;;7.80;1.92;;;;;;;31.99;23.73;99138.09;4502572;31;20084;-82
2022/07/20 06:28:57;;;;;;;10.57;2.28;;;;;;;32.07;23.51;99141.47;4503689;31;20107;-82
2022/07/20 06:31:23;;;;;;;8.73;2.22;;;;;;;32.08;23.12;99140.41;4489333;31;20096;-82
2022/07/20 06:33:50;;;;;;;9.32;2.20;;;;;;;32.06;23.03;99138.97;4489426;31;20446;-86
2022/07/20 06:36:16;;;;;;;;;;;;;;;32.19;22.87;99143.53;4489669;31;20148;-83
2022/07/20 06:38:42;;;;;;;10.93;2.10;;;;;;;32.30;22.72;99138.25;4496423;31;20453;-83
2022/07/20 06:41:08;;;;;;;7.32;2.12;;;;;;;32.31;22.57;99136.34;4491787;31;20100;-83
2022/07/20 06:43:33;;;;;;;11.12;1.90;;;;;;;32.37;22.51;99135.47;4487742;31;20101;-85
2022/07/20 06:45:59;;;;;;;9.05;2.00;;;;;;;32.27;22.67;99133.22;4488229;31;20114;-85
2022/07/20 06:48:24;;;;;;;7.90;2.10;;;;;;;32.37;22.18;99131.94;4501882;31;20760;-84
2022/07/20 06:50:50;;;;;;;7.32;1.95;;;;;;;32.30;22.59;99134.69;4499443;31;20110;-85
2022/07/20 06:53:15;;;;;;;9.85;2.05;;;;;;;32.18;22.39;99142.72;4494850;31;20088;-85
2022/07/20 06:55:41;;;;;;;10.68;2.30;;;;;;;32.38;22.37;99139.06;4503397;31;20128;-85
2022/07/20 06:58:06;;;;;;;7.45;2.00;;;;;;;32.50;22.40;99134.59;4489620;31;20132;-85
2022/07/20 07:00:31;;;;;;;9.27;2.20;;;;;;;32.57;22.08;99135.44;4491127;31;20080;-86
2022/07/20 07:02:57;;;;;;;8.38;2.20;;;;;;;32.62;22.26;99130.13;4488051;32;20103;-85
2022/07/20 07:05:22;;;;;;;10.65;2.33;;;;;;;32.67;22.33;99135.78;4487945;32;20116;-84
2022/07/20 07:07:48;;;;;;;6.10;2.00;;;;;;;32.65;22.39;99126.97;4487798;32;20351;-85
2022/07/20 07:10:14;;;;;;;6.45;1.95;;;;;;;32.97;22.24;99124.25;4487897;32;20255;-82
2022/07/20 07:12:39;;;;;;;8.88;2.00;;;;;;;33.03;22.12;99131.56;4487972;32;20084;-82
2022/07/20 07:15:05;;;;;;;7.87;2.05;;;;;;;32.98;22.15;99125.09;4473526;32;20080;-82
2022/07/20 07:17:31;;;;;;;6.28;1.85;;;;;;;32.96;21.95;99130.78;4487909;32;20072;-82
2022/07/20 07:19:59;;;;;;;7.35;2.00;;;;;;;32.98;22.15;99138.75;4487986;32;20101;-81
2022/07/20 07:22:26;;;;;;;11.75;2.30;;;;;;;33.12;22.19;99134.88;4488498;31;20097;-81
2022/07/20 07:24:51;;;;;;;8.15;2.12;;;;;;;33.09;22.42;99133.41;4503522;31;20391;-81
2022/07/20 07:27:17;;;;;;;8.10;2.00;;;;;;;33.10;22.31;99134.25;4489045;31;20076;-81
2022/07/20 07:29:42;;;;;;;8.57;1.87;;;;;;;33.11;22.29;99127.75;4503248;31;20111;-81
2022/07/20 07:32:07;;;;;;;8.02;2.22;;;;;;;33.18;22.35;99133.16;4488973;31;20488;-81
2022/07/20 07:34:33;;;;;;;8.63;2.42;;;;;;;33.17;22.42;99131.50;4495728;31;20344;-82
2022/07/20 07:36:59;;;;;;;11.88;2.40;;;;;;;33.27;22.06;99131.81;4485809;32;20372;-81
2022/07/20 07:39:24;;;;;;;9.38;1.92;;;;;;;33.36;22.25;99135.09;4486742;31;20481;-82
2022/07/20 07:41:50;;;;;;;10.02;2.87;;;;;;;33.38;22.01;99131.09;4486072;32;20428;-82
2022/07/20 07:44:15;;;;;;;10.32;2.20;;;;;;;33.47;21.61;99127.00;4496306;31;20106;-83
2022/07/20 07:46:41;;;;;;;10.70;2.17;;;;;;;33.51;21.83;99135.59;4488385;31;20129;-84
2022/07/20 07:49:06;;;;;;;9.50;2.22;;;;;;;33.44;21.41;99127.47;4488750;31;20155;-83
2022/07/20 07:51:32;;;;;;;8.82;2.10;;;;;;;33.46;21.41;99124.53;4503006;31;20349;-83
2022/07/20 07:53:58;;;;;;;7.18;2.00;;;;;;;33.64;21.23;99126.47;4502824;31;20145;-84
2022/07/20 07:56:23;;;;;;;8.57;2.10;;;;;;;33.60;21.02;99126.03;4475448;31;20096;-84
2022/07/20 07:58:49;;;;;;;7.95;2.00;;;;;;;33.58;21.12;99122.72;4488702;31;20160;-84
2022/07/20 08:01:14;;;;;;;7.82;2.10;;;;;;;33.64;20.92;99126.47;4503144;31;20118;-83
2022/07/20 08:03:40;;;;;;;7.25;2.10;;;;;;;33.71;20.88;99119.06;4488292;31;20431;-84
2022/07/20 08:06:06;;;;;;;6.37;1.90;;;;;;;33.77;20.45;99122.78;4503084;31;20072;-84
2022/07/20 08:08:31;;;;;;;9.90;2.10;;;;;;;33.68;20.63;99123.06;4488848;31;20487;-84
2022/07/20 08:10:57;;;;;;;8.57;1.95;;;;;;;33.84;20.20;99118.06;4503075;31;20177;-84
2022/07/20 08:13:23;;;;;;;8.13;2.12;;;;;;;33.86;20.11;99113.19;4502978;31;20151;-84
2022/07/20 08:15:48;;;;;;;6.18;2.03;;;;;;;33.84;20.35;99110.72;4502924;31;20084;-84
2022/07/20 08:18:14;;;;;;;9.00;1.95;;;;;;;33.90;20.42;99119.88;4488470;31;20104;-83
2022/07/20 08:20:39;;;;;;;8.55;2.28;;;;;;;33.88;20.51;99113.78;4475522;31;20104;-84
2022/07/20 08:23:05;;;;;;;9.13;2.17;;;;;;;33.92;19.95;99117.78;4502835;31;20087;-83
2022/07/20 08:25:30;;;;;;;9.20;2.10;;;;;;;33.96;19.79;99115.38;4502786;31;20103;-84
2022/07/20 08:28:08;;;;;;;6.40;2.15;;;;;;;33.92;20.25;99115.03;4488648;31;20462;-84
2022/07/20 08:30:34;;;;;;;6.15;1.95;;;;;;;33.96;20.33;99115.38;4503141;31;20114;-84
2022/07/20 08:32:59;;;;;;;6.75;1.98;;;;;;;33.93;20.59;99113.97;4502888;31;20088;-84
2022/07/20 08:35:25;;;;;;;8.52;2.10;;;;;;;33.98;20.81;99118.72;4502715;31;20088;-84
2022/07/20 08:37:50;;;;;;;11.10;2.35;;;;;;;33.93;20.61;99116.69;4502847;31;20100;-84
2022/07/20 08:40:16;;;;;;;8.40;2.30;;;;;;;34.03;20.39;99116.16;4502870;31;20144;-84
2022/07/20 08:42:42;;;;;;;9.27;2.10;;;;;;;34.13;20.92;99119.19;4488406;31;20088;-84
2022/07/20 08:45:09;;;;;;;10.05;2.35;;;;;;;34.23;20.29;99103.13;4502793;31;20114;-84
2022/07/20 08:47:35;;;;;;;;;;;;;;;34.26;20.67;99101.81;4503197;31;20104;-84
2022/07/20 08:50:00;;;;;;;11.12;2.37;;;;;;;34.32;19.76;99100.88;4501472;31;19985;-84
2022/07/20 08:52:25;;;;;;;9.88;2.10;;;;;;;34.22;20.57;99103.34;4488398;31;20093;-84
2022/07/20 08:54:51;;;;;;;8.40;2.55;;;;;;;34.22;20.05;99106.06;4502568;31;20076;-83
2022/07/20 08:57:17;;;;;;;7.32;2.37;;;;;;;34.26;19.66;99101.81;4502646;31;20100;-85
2022/07/20 08:59:44;;;;;;;9.00;2.17;;;;;;;34.16;20.29;99104.25;4502816;31;20099;-83
2022/07/20 09:02:11;;;;;;;8.02;2.10;;;;;;;34.02;20.28;99103.56;4502714;31;20092;-84
2022/07/20 09:04:50;;;;;;;11.02;2.42;;;;;;;33.84;20.53;99096.19;4488258;31;20088;-83
2022/07/20 09:07:16;;;;;;;9.02;2.50;;;;;;;34.01;20.29;99096.41;4502667;31;20080;-82
2022/07/20 09:09:41;;;;;;;10.77;2.62;;;;;;;33.99;20.31;99096.63;4503008;31;20088;-84
2022/07/20 09:12:07;;;;;;;8.90;2.20;;;;;;;34.05;20.20;99086.69;4488371;31;20111;-83
2022/07/20 09:14:40;;;;;;;9.48;2.53;;;;;;;34.17;19.58;99093.09;4488370;31;20128;-84
2022/07/20 09:17:16;;;;;;;7.78;2.00;;;;;;;34.04;19.90;99090.50;4502824;31;20103;-84
2022/07/20 09:20:07;;;;;;;9.88;2.25;;;;;;;34.02;19.96;99087.16;4502463;31;20115;-84
2022/07/20 09:22:43;;;;;;;7.97;2.20;;;;;;;34.06;19.89;99091.94;4488501;31;20088;-84
2022/07/20 09:25:14;;;;;;;7.03;1.90;;;;;;;34.23;19.87;99088.59;4502439;31;20075;-84
2022/07/20 09:27:41;;;;;;;9.23;2.22;;;;;;;34.15;19.55;99081.56;4502351;31;20092;-84
2022/07/20 09:30:12;;;;;;;11.52;2.10;;;;;;;34.40;19.38;99080.59;4502305;31;20091;-84
2022/07/20 09:32:54;;;;;;;7.72;2.03;;;;;;;34.44;19.18;99081.78;4502355;31;20380;-84
2022/07/20 09:35:22;;;;;;;10.52;2.17;;;;;;;34.46;19.05;99082.38;4487857;31;20439;-84
2022/07/20 09:37:48;;;;;;;9.52;2.17;;;;;;;34.31;19.07;99077.34;4502512;31;20100;-83
2022/07/20 09:40:13;;;;;;;10.70;2.20;;;;;;;34.10;19.36;99072.34;4502532;31;20106;-84
2022/07/20 09:42:41;;;;;;;7.30;2.00;;;;;;;34.03;19.66;99062.31;4487959;31;20103;-84
2022/07/20 09:45:27;;;;;;;8.38;2.10;;;;;;;34.22;19.78;99068.63;4488080;31;20175;-83
2022/07/20 09:48:12;;;;;;;9.10;2.10;;;;;;;34.22;19.51;99065.88;4488004;31;20697;-84
2022/07/20 09:50:43;;;;;;;11.57;2.55;;;;;;;34.36;19.72;99066.53;4488117;31;20130;-83
2022/07/20 09:53:10;;;;;;;8.48;2.33;;;;;;;34.42;19.50;99064.78;4487973;31;20147;-83
2022/07/20 09:55:37;;;;;;;8.43;2.55;;;;;;;34.51;19.24;99066.13;4502140;31;20102;-83
2022/07/20 09:58:03;;;;;;;7.43;2.28;;;;;;;34.43;19.43;99055.50;4487691;31;20109;-83
2022/07/20 10:00:29;;;;;;;7.78;2.22;;;;;;;34.44;19.27;99055.28;4487899;31;20104;-83
2022/07/20 10:02:57;;;;;;;10.57;2.17;;;;;;;34.64;19.15;99054.16;4489852;31;20474;-83
2022/07/20 10:05:22;;;;;;;9.68;2.22;;;;;;;34.52;18.97;99051.38;4504188;31;20110;-83
2022/07/20 10:07:49;;;;;;;7.43;2.22;;;;;;;34.61;19.21;99055.44;4489681;31;20104;-83
2022/07/20 10:10:14;;;;;;;8.87;2.10;;;;;;;34.65;18.58;99051.19;4504183;31;20509;-84
2022/07/20 10:12:40;;;;;;;10.20;1.90;;;;;;;34.75;18.74;99055.25;4504080;31;20194;-83
2022/07/20 10:15:12;;;;;;;9.77;2.10;;;;;;;34.85;18.23;99053.63;4489796;31;20103;-82
2022/07/20 10:17:38;;;;;;;8.35;2.47;;;;;;;34.77;18.23;99053.12;4504181;31;20159;-82
2022/07/20 10:20:07;;;;;;;7.78;2.00;;;;;;;34.71;18.41;99043.13;4489829;31;20104;-82
2022/07/20 10:22:32;;;;;;;5.12;1.65;;;;;;;34.80;18.32;99038.97;4489467;31;20160;-83
2022/07/20 10:25:19;;;;;;;6.35;1.92;;;;;;;34.71;18.33;99032.16;4476577;31;20080;-82
2022/07/20 10:27:44;;;;;;;7.97;1.80;;;;;;;34.91;18.13;99024.47;4504007;31;20492;-83
2022/07/20 10:30:17;;;;;;;8.93;1.80;;;;;;;34.79;18.15;99031.81;4489807;31;20076;-82
2022/07/20 10:32:56;;;;;;;12.90;2.20;;;;;;;34.87;18.10;99036.97;4489718;31;20080;-83
2022/07/20 10:35:29;;;;;;;6.65;1.80;;;;;;;34.81;18.16;99036.00;4489698;31;20103;-83
2022/07/20 10:37:56;;;;;;;9.90;2.17;;;;;;;34.95;18.26;99030.31;4503666;31;20136;-83
2022/07/20 10:40:23;;;;;;;;;;;;;;;34.93;17.75;99019.59;4504106;31;20671;-83
2022/07/20 10:43:07;;;;;;;7.28;1.77;;;;;;;35.05;17.62;99023.16;4503914;31;19979;-83
2022/07/20 10:45:34;;;;;;;7.72;1.87;;;;;;;35.00;17.59;99019.47;4504203;31;20068;-83
2022/07/20 10:48:16;;;;;;;7.07;2.10;;;;;;;34.85;17.79;99019.94;4489506;31;20115;-83
2022/07/20 10:50:46;;;;;;;5.95;1.90;;;;;;;34.92;17.68;99008.88;4503986;31;20152;-83
2022/07/20 10:53:11;;;;;;;5.00;1.92;;;;;;;34.98;17.90;99014.25;4489201;31;20155;-82
2022/07/20 10:55:37;;;;;;;5.10;1.83;;;;;;;35.08;17.79;99018.28;4487828;31;20096;-83
2022/07/20 10:58:05;;;;;;;6.57;1.83;;;;;;;35.13;16.71;99012.94;4487812;31;20501;-87
2022/07/20 11:00:34;;;;;;;6.10;1.70;;;;;;;35.15;16.71;99006.12;4487789;31;20076;-84
2022/07/20 11:03:00;;;;;;;10.90;2.10;;;;;;;35.13;17.03;99007.47;4487303;31;20447;-84
2022/07/20 11:05:26;;;;;;;10.13;1.95;;;;;;;35.23;17.25;99000.34;4486619;32;20098;-85
2022/07/20 11:07:51;;;;;;;9.43;2.75;;;;;;;35.29;16.91;98994.97;4487855;32;20374;-85
2022/07/20 11:10:25;;;;;;;9.73;2.15;;;;;;;35.27;17.11;98995.19;4487590;31;20114;-85
2022/07/20 11:13:11;;;;;;;9.48;2.08;;;;;;;35.33;17.31;98993.41;4485664;32;20522;-84
2022/07/20 11:15:48;;;;;;;8.70;2.55;;;;;;;35.39;17.01;98993.28;4487578;31;20435;-85
2022/07/20 11:18:19;;;;;;;5.72;1.75;;;;;;;35.46;16.96;98997.81;4487688;31;20104;-85
2022/07/20 11:20:59;;;;;;;5.22;1.70;;;;;;;35.56;16.97;98989.78;4479892;32;213876;-85
2022/07/20 11:23:38;;;;;;;6.97;2.10;;;;;;;35.54;16.92;98990.03;4487557;31;20143;-85
2022/07/20 11:26:03;;;;;;;6.55;2.03;;;;;;;35.39;17.07;98993.28;4487722;31;20106;-84
2022/07/20 11:28:34;;;;;;;7.53;2.05;;;;;;;35.42;16.78;98989.22;4487562;31;20097;-85
2022/07/20 11:31:01;;;;;;;7.22;1.75;;;;;;;35.41;16.66;98991.16;4486461;32;20084;-85
2022/07/20 11:33:28;;;;;;;7.25;1.98;;;;;;;35.46;17.03;98989.59;4487521;31;20523;-85
2022/07/20 11:35:56;;;;;;;6.03;1.62;;;;;;;35.53;16.77;98988.37;4487423;31;20140;-84